createdAt,value
2019-03-28T00:01:07.524Z,32.87
2019-03-28T00:03:37.697Z,32.37
2019-03-28T00:06:07.729Z,33.60
2019-03-28T00:08:37.748Z,34.83
2019-03-28T00:11:07.854Z,31.80
2019-03-28T00:13:37.973Z,35.63
2019-03-28T00:16:08.160Z,33.37
2019-03-28T00:18:38.431Z,29.37
2019-03-28T00:21:10.637Z,30.63
2019-03-28T00:24:14.892Z,34.50
2019-03-28T00:26:45.295Z,30.03
2019-03-28T00:29:15.388Z,31.60
2019-03-28T00:31:47.908Z,30.47
2019-03-28T00:34:17.324Z,37.67
2019-03-28T00:36:47.376Z,30.23
2019-03-28T00:39:17.532Z,26.73
2019-03-28T00:41:47.635Z,30.47
2019-03-28T00:44:17.884Z,30.00
2019-03-28T00:46:48.024Z,30.43
2019-03-28T00:49:18.270Z,30.73
2019-03-28T00:51:48.256Z,33.10
2019-03-28T00:54:18.321Z,30.43
2019-03-28T00:56:48.357Z,34.73
2019-03-28T00:59:18.672Z,31.43
2019-03-28T01:01:48.728Z,29.10
2019-03-28T01:04:18.782Z,30.73
2019-03-28T01:06:48.862Z,29.70
2019-03-28T01:09:18.931Z,30.03
2019-03-28T01:11:49.026Z,31.40
2019-03-28T01:14:19.448Z,37.60
2019-03-28T01:16:49.477Z,32.33
2019-03-28T01:19:19.621Z,30.83
2019-03-28T01:21:49.788Z,36.33
2019-03-28T01:24:20.213Z,32.13
2019-03-28T01:26:57.148Z,29.33
2019-03-28T01:29:22.848Z,30.70
2019-03-28T01:31:53.103Z,30.20
2019-03-28T01:34:23.154Z,32.87
2019-03-28T01:36:53.275Z,29.47
2019-03-28T01:39:23.403Z,32.73
2019-03-28T01:41:53.864Z,35.13
2019-03-28T01:44:24.077Z,31.27
2019-03-28T01:46:54.279Z,31.63
2019-03-28T01:49:24.424Z,40.03
2019-03-28T01:51:54.974Z,33.77
2019-03-28T01:54:25.053Z,34.27
2019-03-28T01:56:55.417Z,37.57
2019-03-28T01:59:25.511Z,36.07
2019-03-28T02:01:55.688Z,34.27
2019-03-28T02:04:25.829Z,35.13
2019-03-28T02:06:55.921Z,35.53
2019-03-28T02:09:25.954Z,34.57
2019-03-28T02:11:55.990Z,33.07
2019-03-28T02:14:26.127Z,38.83
2019-03-28T02:16:56.168Z,57.97
2019-03-28T02:19:26.181Z,39.67
2019-03-28T02:21:56.231Z,36.87
2019-03-28T02:24:26.603Z,31.97
2019-03-28T02:26:56.719Z,43.97
2019-03-28T02:29:26.877Z,33.53
2019-03-28T02:31:57.042Z,31.57
2019-03-28T02:34:27.128Z,36.77
2019-03-28T02:36:57.326Z,27.57
2019-03-28T02:39:27.727Z,30.30
2019-03-28T02:41:57.782Z,28.50
2019-03-28T02:44:27.915Z,30.97
2019-03-28T02:46:58.027Z,34.77
2019-03-28T02:49:28.233Z,36.43
2019-03-28T02:51:58.265Z,31.97
2019-03-28T02:54:28.371Z,30.60
2019-03-28T02:56:58.907Z,28.80
2019-03-28T02:59:28.998Z,32.57
2019-03-28T03:01:59.052Z,33.20
2019-03-28T03:04:29.036Z,33.70
2019-03-28T03:06:59.135Z,32.80
2019-03-28T03:09:29.158Z,29.20
2019-03-28T03:11:59.234Z,31.60
2019-03-28T03:14:29.304Z,32.83
2019-03-28T03:16:59.485Z,29.73
2019-03-28T03:19:29.950Z,33.77
2019-03-28T03:21:59.974Z,34.07
2019-03-28T03:24:30.063Z,32.20
2019-03-28T03:27:00.068Z,37.10
2019-03-28T03:29:30.109Z,37.23
2019-03-28T03:32:00.209Z,33.70
2019-03-28T03:34:30.289Z,32.53
2019-03-28T03:37:00.643Z,35.07
2019-03-28T03:39:30.710Z,34.10
2019-03-28T03:42:00.895Z,33.07
2019-03-28T03:44:31.107Z,34.43
2019-03-28T03:47:01.302Z,33.57
2019-03-28T03:49:31.368Z,35.53
2019-03-28T03:52:01.461Z,33.60
2019-03-28T03:54:31.552Z,32.43
2019-03-28T03:57:01.587Z,32.93
2019-03-28T03:59:31.636Z,35.90
2019-03-28T04:02:01.700Z,36.77
2019-03-28T04:04:31.792Z,33.07
2019-03-28T04:07:01.958Z,36.13
2019-03-28T04:09:32.049Z,31.07
2019-03-28T04:12:02.146Z,31.23
2019-03-28T04:14:32.249Z,32.50
2019-03-28T04:17:02.397Z,32.17
2019-03-28T04:19:32.558Z,29.47
2019-03-28T04:22:02.710Z,32.60
2019-03-28T04:24:32.794Z,32.47
2019-03-28T04:27:02.891Z,31.83
2019-03-28T04:29:32.997Z,34.30
2019-03-28T04:32:03.073Z,30.73
2019-03-28T04:34:33.148Z,28.67
2019-03-28T04:37:03.477Z,35.40
2019-03-28T04:39:33.571Z,31.23
2019-03-28T04:42:03.768Z,28.67
2019-03-28T04:44:33.860Z,31.30
2019-03-28T04:47:03.946Z,32.13
2019-03-28T04:49:34.195Z,31.80
2019-03-28T04:52:04.305Z,30.93
2019-03-28T04:54:34.475Z,35.03
2019-03-28T04:57:04.666Z,30.87
2019-03-28T04:59:34.757Z,30.03
2019-03-28T05:02:05.416Z,34.83
2019-03-28T05:04:36.159Z,36.90
2019-03-28T05:07:06.423Z,34.03
2019-03-28T05:09:36.581Z,39.00
2019-03-28T05:12:06.873Z,37.27
2019-03-28T05:14:37.047Z,35.17
2019-03-28T05:17:07.245Z,37.17
2019-03-28T05:19:37.467Z,35.07
2019-03-28T05:22:07.618Z,36.10
2019-03-28T05:24:37.850Z,35.33
2019-03-28T05:27:08.102Z,35.77
2019-03-28T05:29:38.194Z,34.97
2019-03-28T05:32:08.319Z,29.43
2019-03-28T05:34:38.506Z,30.33
2019-03-28T05:37:08.676Z,32.60
2019-03-28T05:39:38.816Z,29.20
2019-03-28T05:42:08.931Z,29.93
2019-03-28T05:44:39.028Z,35.33
2019-03-28T05:47:09.152Z,34.30
2019-03-28T05:49:39.254Z,33.93
2019-03-28T05:52:11.739Z,28.90
2019-03-28T05:54:41.020Z,30.63
2019-03-28T05:57:11.237Z,28.33
2019-03-28T05:59:41.311Z,26.43
2019-03-28T06:02:11.789Z,24.77
2019-03-28T06:04:41.819Z,26.87
2019-03-28T06:07:14.882Z,26.27
2019-03-28T06:09:44.892Z,23.77
2019-03-28T06:12:14.894Z,24.53
2019-03-28T06:14:44.961Z,22.80
2019-03-28T06:17:14.976Z,23.83
2019-03-28T06:19:44.972Z,23.30
2019-03-28T06:22:15.043Z,24.90
2019-03-28T06:24:45.066Z,24.17
2019-03-28T06:27:15.092Z,21.50
2019-03-28T06:29:45.124Z,21.50
2019-03-28T06:32:15.174Z,20.07
2019-03-28T06:34:45.240Z,23.80
2019-03-28T06:37:15.280Z,23.63
2019-03-28T06:39:45.334Z,21.10
2019-03-28T06:42:15.372Z,20.03
2019-03-28T06:44:45.424Z,18.87
2019-03-28T06:47:15.448Z,19.00
2019-03-28T06:49:45.514Z,19.57
2019-03-28T06:52:15.550Z,16.73
2019-03-28T06:54:45.554Z,19.03
2019-03-28T06:57:17.694Z,19.57
2019-03-28T06:59:47.230Z,17.40
2019-03-28T07:02:17.435Z,17.97
2019-03-28T07:04:47.580Z,18.27
2019-03-28T07:07:18.570Z,16.53
2019-03-28T07:09:48.696Z,16.57
2019-03-28T07:12:18.724Z,18.73
2019-03-28T07:14:48.772Z,16.77
2019-03-28T07:17:18.846Z,17.37
2019-03-28T07:19:49.059Z,17.57
2019-03-28T07:22:19.390Z,16.50
2019-03-28T07:24:49.486Z,17.73
2019-03-28T07:27:19.518Z,14.47
2019-03-28T07:29:51.231Z,17.50
2019-03-28T07:32:21.281Z,19.27
2019-03-28T07:34:51.390Z,18.30
2019-03-28T07:37:21.492Z,16.40
2019-03-28T07:39:51.552Z,15.90
2019-03-28T07:42:21.764Z,17.50
2019-03-28T07:44:51.865Z,17.77
2019-03-28T07:47:22.341Z,16.30
2019-03-28T07:49:52.400Z,15.63
2019-03-28T07:52:22.565Z,14.87
2019-03-28T07:54:52.881Z,14.80
2019-03-28T07:57:22.946Z,12.13
2019-03-28T08:00:03.521Z,12.83
2019-03-28T08:02:24.640Z,13.10
2019-03-28T08:04:54.678Z,12.67
2019-03-28T08:07:24.710Z,14.23
2019-03-28T08:09:54.842Z,13.03
2019-03-28T08:12:25.180Z,12.17
2019-03-28T08:14:55.164Z,10.37
2019-03-28T08:17:25.186Z,9.43
2019-03-28T08:19:55.481Z,8.80
2019-03-28T08:22:25.520Z,10.53
2019-03-28T08:24:55.536Z,9.83
2019-03-28T08:27:25.636Z,9.63
2019-03-28T08:29:57.783Z,8.90
2019-03-28T08:32:27.997Z,9.20
2019-03-28T08:34:58.324Z,9.33
2019-03-28T08:37:28.963Z,11.97
2019-03-28T08:39:59.026Z,11.20
2019-03-28T08:42:29.088Z,11.80
2019-03-28T08:44:59.403Z,9.40
2019-03-28T08:47:29.407Z,10.00
2019-03-28T08:49:59.568Z,9.13
2019-03-28T08:52:29.922Z,9.07
2019-03-28T08:55:00.073Z,8.30
2019-03-28T08:57:30.156Z,9.63
2019-03-28T09:00:00.447Z,10.10
2019-03-28T09:02:30.610Z,10.20
2019-03-28T09:05:00.754Z,12.37
2019-03-28T09:07:30.755Z,11.20
2019-03-28T09:10:00.811Z,10.50
2019-03-28T09:12:30.889Z,9.63
2019-03-28T09:15:00.888Z,10.43
2019-03-28T09:17:30.951Z,11.70
2019-03-28T09:20:00.956Z,8.90
2019-03-28T09:22:30.961Z,9.70
2019-03-28T09:25:01.084Z,9.07
2019-03-28T09:27:31.060Z,10.43
2019-03-28T09:30:01.059Z,9.90
2019-03-28T09:32:31.812Z,10.07
2019-03-28T09:35:02.024Z,10.87
2019-03-28T09:37:32.068Z,9.50
2019-03-28T09:40:02.121Z,10.33
2019-03-28T09:42:32.218Z,10.47
2019-03-28T09:45:02.269Z,7.87
2019-03-28T09:47:32.369Z,7.90
2019-03-28T09:50:02.418Z,8.17
2019-03-28T09:52:32.465Z,9.67
2019-03-28T09:55:02.506Z,7.87
2019-03-28T09:57:32.646Z,8.37
2019-03-28T10:00:02.709Z,6.53
2019-03-28T10:02:32.792Z,9.33
2019-03-28T10:05:02.940Z,6.60
2019-03-28T10:07:32.950Z,5.90
2019-03-28T10:10:03.165Z,6.85
2019-03-28T10:12:34.374Z,7.70
2019-03-28T10:15:04.588Z,5.25
2019-03-28T10:17:34.758Z,7.17
2019-03-28T10:20:05.777Z,7.33
2019-03-28T10:22:36.075Z,6.13
2019-03-28T10:25:07.278Z,6.17
2019-03-28T10:27:38.469Z,7.42
2019-03-28T10:30:09.145Z,9.00
2019-03-28T10:32:39.345Z,8.45
2019-03-28T10:35:09.471Z,7.78
2019-03-28T10:37:39.783Z,8.05
2019-03-28T10:40:10.109Z,7.45
2019-03-28T10:42:40.178Z,7.58
2019-03-28T10:45:10.214Z,7.78
2019-03-28T10:47:40.432Z,7.23
2019-03-28T10:50:10.614Z,6.47
2019-03-28T10:52:40.676Z,7.05
2019-03-28T10:55:10.733Z,6.65
2019-03-28T10:57:40.818Z,6.85
2019-03-28T11:00:23.527Z,8.90
2019-03-28T11:02:43.398Z,5.30
2019-03-28T11:05:14.482Z,5.55
2019-03-28T11:07:44.752Z,5.97
2019-03-28T11:10:15.124Z,6.47
2019-03-28T11:12:45.171Z,6.67
2019-03-28T11:15:15.436Z,7.00
2019-03-28T11:17:45.604Z,8.30
2019-03-28T11:20:15.819Z,6.83
2019-03-28T11:22:45.968Z,14.17
2019-03-28T11:25:16.121Z,7.03
2019-03-28T11:27:46.367Z,4.75
2019-03-28T11:30:18.548Z,5.25
2019-03-28T11:32:48.993Z,5.65
2019-03-28T11:35:19.092Z,5.45
2019-03-28T11:37:49.150Z,5.75
2019-03-28T11:40:19.199Z,9.80
2019-03-28T11:42:51.867Z,7.83
2019-03-28T11:45:20.881Z,7.60
2019-03-28T11:47:50.967Z,6.50
2019-03-28T11:50:21.098Z,8.70
2019-03-28T11:52:51.169Z,6.90
2019-03-28T11:55:21.231Z,3.98
2019-03-28T11:57:51.385Z,6.05
2019-03-28T12:00:21.623Z,6.17
2019-03-28T12:02:52.020Z,6.22
2019-03-28T12:05:22.045Z,4.97
2019-03-28T12:07:52.214Z,6.15
2019-03-28T12:10:22.434Z,4.08
2019-03-28T12:12:52.597Z,4.75
2019-03-28T12:15:22.995Z,4.22
2019-03-28T12:17:53.092Z,5.20
2019-03-28T12:20:23.130Z,5.65
2019-03-28T12:22:55.977Z,4.95
2019-03-28T12:25:24.995Z,6.03
2019-03-28T12:27:55.323Z,5.23
2019-03-28T12:30:25.311Z,5.42
2019-03-28T12:32:55.373Z,5.47
2019-03-28T12:35:25.368Z,4.92
2019-03-28T12:37:56.409Z,4.50
2019-03-28T12:40:26.424Z,4.17
2019-03-28T12:42:56.439Z,4.57
2019-03-28T12:45:26.591Z,3.75
2019-03-28T12:47:56.754Z,6.20
2019-03-28T12:50:26.800Z,5.47
2019-03-28T12:52:58.377Z,4.40
2019-03-28T12:55:28.968Z,5.53
2019-03-28T12:57:58.971Z,3.87
2019-03-28T13:00:38.600Z,5.80
2019-03-28T13:03:08.728Z,3.50
2019-03-28T13:05:38.766Z,3.25
2019-03-28T13:08:09.024Z,3.35
2019-03-28T13:10:39.102Z,3.60
2019-03-28T13:13:09.338Z,5.13
2019-03-28T13:15:39.805Z,3.90
2019-03-28T13:18:09.829Z,4.45
2019-03-28T13:20:39.922Z,4.58
2019-03-28T13:23:10.020Z,3.42
2019-03-28T13:25:40.051Z,3.70
2019-03-28T13:28:10.179Z,3.77
2019-03-28T13:30:40.404Z,3.62
2019-03-28T13:33:10.549Z,2.83
2019-03-28T13:35:40.614Z,3.33
2019-03-28T13:38:10.735Z,3.92
2019-03-28T13:40:40.766Z,4.13
2019-03-28T13:43:10.776Z,4.35
2019-03-28T13:45:40.802Z,4.55
2019-03-28T13:48:13.703Z,4.70
2019-03-28T13:50:42.515Z,4.30
2019-03-28T13:53:12.548Z,3.67
2019-03-28T13:55:42.640Z,4.67
2019-03-28T13:58:13.811Z,3.25
2019-03-28T14:00:44.282Z,5.40
2019-03-28T14:03:14.400Z,4.10
2019-03-28T14:05:45.205Z,3.27
2019-03-28T14:08:15.456Z,2.98
2019-03-28T14:10:45.580Z,2.95
2019-03-28T14:13:15.757Z,2.77
2019-03-28T14:15:45.890Z,3.80
2019-03-28T14:18:16.066Z,4.33
2019-03-28T14:20:46.402Z,1.87
2019-03-28T14:23:16.559Z,1.80
2019-03-28T14:25:46.712Z,2.25
2019-03-28T14:28:16.937Z,2.00
2019-03-28T14:30:47.031Z,2.58
2019-03-28T14:33:17.362Z,2.30
2019-03-28T14:35:47.377Z,2.75
2019-03-28T14:38:17.461Z,1.57
2019-03-28T14:40:47.890Z,1.57
2019-03-28T14:43:17.903Z,2.50
2019-03-28T14:45:47.954Z,2.20
2019-03-28T14:48:18.109Z,2.17
2019-03-28T14:50:48.141Z,3.67
2019-03-28T14:53:18.471Z,1.80
2019-03-28T14:55:49.303Z,2.43
2019-03-28T14:58:21.903Z,3.20
2019-03-28T15:00:53.259Z,3.37
2019-03-28T15:03:27.450Z,2.40
2019-03-28T15:05:55.082Z,2.15
2019-03-28T15:08:25.259Z,2.27
2019-03-28T15:10:55.273Z,4.80
2019-03-28T15:13:25.298Z,2.77
2019-03-28T15:15:55.329Z,3.07
2019-03-28T15:18:25.575Z,1.90
2019-03-28T15:20:55.616Z,2.25
2019-03-28T15:23:25.653Z,1.98
2019-03-28T15:25:55.693Z,2.07
2019-03-28T15:28:25.783Z,2.97
2019-03-28T15:30:55.981Z,2.87
2019-03-28T15:33:38.650Z,1.70
2019-03-28T15:35:57.678Z,4.75
2019-03-28T15:38:31.101Z,3.37
2019-03-28T15:40:59.503Z,3.12
2019-03-28T15:43:29.525Z,4.03
2019-03-28T15:45:59.766Z,3.93
2019-03-28T15:48:29.879Z,4.50
2019-03-28T15:50:59.992Z,5.17
2019-03-28T15:53:30.056Z,4.73
2019-03-28T15:56:00.182Z,4.17
2019-03-28T15:58:30.148Z,5.13
2019-03-28T16:01:00.206Z,3.27
2019-03-28T16:03:30.284Z,3.83
2019-03-28T16:06:00.318Z,5.70
2019-03-28T16:08:30.754Z,3.77
2019-03-28T16:11:00.780Z,3.83
2019-03-28T16:13:30.930Z,3.50
2019-03-28T16:16:00.893Z,3.67
2019-03-28T16:18:30.939Z,3.77
2019-03-28T16:21:01.248Z,3.47
2019-03-28T16:23:31.234Z,4.07
2019-03-28T16:26:01.294Z,9.37
2019-03-28T16:28:31.335Z,6.67
2019-03-28T16:31:01.336Z,7.87
2019-03-28T16:33:32.521Z,8.03
2019-03-28T16:36:02.515Z,9.20
2019-03-28T16:38:33.023Z,6.97
2019-03-28T16:41:03.214Z,9.33
2019-03-28T16:43:34.164Z,7.70
2019-03-28T16:46:07.543Z,9.77
2019-03-28T16:48:36.130Z,10.10
2019-03-28T16:51:06.197Z,13.73
2019-03-28T16:53:36.286Z,15.13
2019-03-28T16:56:06.318Z,11.17
2019-03-28T16:58:36.377Z,13.17
2019-03-28T17:01:06.492Z,13.43
2019-03-28T17:03:36.504Z,6.90
2019-03-28T17:06:07.205Z,9.10
2019-03-28T17:08:38.026Z,8.70
2019-03-28T17:11:11.952Z,9.77
2019-03-28T17:13:40.524Z,11.93
2019-03-28T17:16:10.591Z,12.90
2019-03-28T17:18:40.619Z,12.83
2019-03-28T17:21:10.693Z,19.20
2019-03-28T17:23:40.724Z,17.03
2019-03-28T17:26:10.714Z,17.67
2019-03-28T17:28:40.798Z,20.70
2019-03-28T17:31:10.832Z,28.43
2019-03-28T17:33:40.861Z,20.77
2019-03-28T17:36:10.934Z,44.17
2019-03-28T17:38:40.950Z,79.17
2019-03-28T17:41:10.980Z,54.77
2019-03-28T17:43:41.824Z,56.47
2019-03-28T17:46:12.617Z,61.37
2019-03-28T17:48:42.794Z,71.27
2019-03-28T17:51:12.840Z,50.00
2019-03-28T17:53:42.819Z,42.27
2019-03-28T17:56:12.809Z,45.43
2019-03-28T17:58:43.169Z,50.03
2019-03-28T18:01:13.149Z,47.67
2019-03-28T18:03:43.168Z,49.93
2019-03-28T18:06:13.157Z,53.23
2019-03-28T18:08:43.232Z,56.00
2019-03-28T18:11:13.257Z,47.17
2019-03-28T18:13:43.311Z,41.03
2019-03-28T18:16:13.493Z,40.90
2019-03-28T18:18:43.515Z,38.23
2019-03-28T18:21:13.515Z,33.17
2019-03-28T18:23:43.634Z,31.97
2019-03-28T18:26:13.634Z,34.47
2019-03-28T18:28:43.608Z,33.50
2019-03-28T18:31:13.617Z,36.00
2019-03-28T18:33:43.666Z,42.33
2019-03-28T18:36:13.681Z,55.63
2019-03-28T18:38:43.737Z,60.97
2019-03-28T18:41:13.751Z,55.77
2019-03-28T18:43:43.773Z,53.43
2019-03-28T18:46:14.938Z,60.07
2019-03-28T18:48:45.186Z,58.80
2019-03-28T18:51:15.480Z,60.80
2019-03-28T18:53:46.068Z,87.90
2019-03-28T18:56:16.355Z,75.17
2019-03-28T18:58:46.433Z,59.13
2019-03-28T19:01:16.764Z,68.03
2019-03-28T19:03:47.442Z,65.30
2019-03-28T19:06:17.979Z,81.70
2019-03-28T19:08:48.150Z,81.83
2019-03-28T19:11:18.253Z,80.77
2019-03-28T19:13:48.773Z,81.47
2019-03-28T19:16:21.628Z,88.47
2019-03-28T19:18:51.807Z,78.80
2019-03-28T19:21:21.957Z,56.33
2019-03-28T19:23:52.139Z,63.53
2019-03-28T19:26:22.287Z,60.37
2019-03-28T19:28:52.423Z,59.97
2019-03-28T19:31:22.487Z,69.00
2019-03-28T19:33:52.610Z,62.17
2019-03-28T19:36:24.057Z,62.13
2019-03-28T19:38:54.418Z,68.67
2019-03-28T19:41:24.765Z,62.10
2019-03-28T19:43:56.301Z,54.23
2019-03-28T19:46:26.410Z,54.63
2019-03-28T19:48:56.453Z,54.23
2019-03-28T19:51:28.349Z,45.03
2019-03-28T19:53:58.202Z,39.97
2019-03-28T19:56:28.368Z,54.27
2019-03-28T19:58:59.223Z,44.37
2019-03-28T20:01:29.442Z,38.03
2019-03-28T20:03:59.508Z,38.30
2019-03-28T20:06:29.496Z,37.37
2019-03-28T20:08:59.573Z,42.40
2019-03-28T20:11:29.614Z,39.97
2019-03-28T20:13:59.651Z,36.33
2019-03-28T20:16:29.747Z,36.00
2019-03-28T20:19:00.011Z,42.10
2019-03-28T20:21:30.005Z,42.83
2019-03-28T20:24:00.081Z,44.83
2019-03-28T20:26:30.212Z,47.43
2019-03-28T20:29:00.262Z,42.53
2019-03-28T20:31:30.365Z,48.00
2019-03-28T20:34:00.716Z,46.23
2019-03-28T20:36:38.581Z,39.60
2019-03-28T20:39:04.188Z,43.00
2019-03-28T20:41:34.473Z,45.43
2019-03-28T20:44:04.571Z,42.70
2019-03-28T20:46:35.071Z,52.13
2019-03-28T20:49:05.210Z,48.13
2019-03-28T20:51:35.661Z,62.30
2019-03-28T20:54:07.781Z,60.77
2019-03-28T20:56:37.708Z,65.33
2019-03-28T20:59:08.022Z,71.57
2019-03-28T21:01:38.118Z,75.20
2019-03-28T21:04:08.291Z,79.30
2019-03-28T21:06:38.806Z,78.10
2019-03-28T21:09:09.398Z,72.80
2019-03-28T21:11:39.588Z,70.33
2019-03-28T21:14:10.172Z,64.93
2019-03-28T21:16:40.234Z,71.23
2019-03-28T21:19:10.287Z,62.43
2019-03-28T21:21:40.372Z,63.07
2019-03-28T21:24:10.512Z,61.83
2019-03-28T21:26:41.083Z,62.40
2019-03-28T21:29:11.277Z,70.80
2019-03-28T21:31:49.767Z,59.13
2019-03-28T21:34:13.089Z,55.73
2019-03-28T21:36:43.075Z,57.00
2019-03-28T21:39:13.087Z,54.37
2019-03-28T21:41:43.136Z,54.80
2019-03-28T21:44:13.217Z,58.13
2019-03-28T21:46:43.235Z,54.37
2019-03-28T21:49:13.316Z,51.80
2019-03-28T21:51:45.807Z,53.50
2019-03-28T21:54:15.026Z,53.00
2019-03-28T21:57:01.504Z,64.10
2019-03-28T21:59:31.558Z,55.50
2019-03-28T22:02:01.692Z,50.37
2019-03-28T22:04:31.754Z,52.20
2019-03-28T22:07:01.768Z,51.53
2019-03-28T22:09:31.859Z,49.17
2019-03-28T22:12:02.838Z,51.00
2019-03-28T22:14:33.166Z,61.40
2019-03-28T22:17:03.195Z,63.13
2019-03-28T22:19:33.343Z,51.47
2019-03-28T22:22:03.464Z,47.60
2019-03-28T22:24:33.495Z,50.83
2019-03-28T22:27:03.638Z,50.70
2019-03-28T22:29:33.708Z,61.03
2019-03-28T22:32:03.891Z,53.67
2019-03-28T22:34:34.239Z,54.13
2019-03-28T22:37:04.269Z,52.50
2019-03-28T22:39:34.410Z,52.30
2019-03-28T22:42:04.660Z,46.63
2019-03-28T22:44:34.757Z,47.30
2019-03-28T22:47:06.002Z,50.07
2019-03-28T22:49:36.207Z,50.03
2019-03-28T22:52:06.519Z,51.50
2019-03-28T22:54:36.614Z,50.27
2019-03-28T22:57:06.960Z,51.70
2019-03-28T22:59:37.039Z,52.37
2019-03-28T23:02:07.216Z,56.73
2019-03-28T23:04:37.390Z,55.13
2019-03-28T23:07:11.259Z,56.10
2019-03-28T23:09:39.075Z,52.93
2019-03-28T23:12:09.490Z,62.93
2019-03-28T23:14:39.509Z,65.83
2019-03-28T23:17:09.878Z,73.37
2019-03-28T23:19:39.908Z,82.33
2019-03-28T23:22:10.014Z,87.33
2019-03-28T23:24:40.036Z,74.03
2019-03-28T23:27:10.101Z,76.60
2019-03-28T23:29:40.124Z,73.67
2019-03-28T23:32:10.113Z,75.00
2019-03-28T23:34:40.267Z,73.77
2019-03-28T23:37:23.922Z,72.20
2019-03-28T23:39:42.100Z,65.80
2019-03-28T23:42:12.427Z,64.43
2019-03-28T23:44:43.228Z,55.17
2019-03-28T23:47:13.222Z,67.13
2019-03-28T23:49:43.304Z,59.53
2019-03-28T23:52:13.361Z,54.47
2019-03-28T23:54:43.454Z,62.00
2019-03-28T23:57:13.488Z,72.47
2019-03-28T23:59:43.520Z,69.30
